sensor_id;sensor_type;location;lat;lon;timestamp;pressure;altitude;pressure_sealevel;temperature;humidity
77216;BME280;66210;53.282;9.864;2023-07-16T00:02:01;100305.34;;;19.86;72.00
77216;BME280;66210;53.282;9.864;2023-07-16T00:04:27;100287.28;;;19.80;72.12
77216;BME280;66210;53.282;9.864;2023-07-16T00:06:54;100239.19;;;19.80;72.38
77216;BME280;66210;53.282;9.864;2023-07-16T00:09:21;100246.00;;;19.66;72.45
77216;BME280;66210;53.282;9.864;2023-07-16T00:11:47;100267.53;;;19.71;73.07
77216;BME280;66210;53.282;9.864;2023-07-16T00:14:14;100225.38;;;19.43;73.22
77216;BME280;66210;53.282;9.864;2023-07-16T00:16:41;100289.84;;;19.60;73.54
77216;BME280;66210;53.282;9.864;2023-07-16T00:19:10;100271.78;;;19.53;73.48
77216;BME280;66210;53.282;9.864;2023-07-16T00:21:37;100296.69;;;19.61;73.62
77216;BME280;66210;53.282;9.864;2023-07-16T00:24:05;100257.16;;;19.37;73.52
77216;BME280;66210;53.282;9.864;2023-07-16T00:26:32;100276.00;;;19.39;73.40
77216;BME280;66210;53.282;9.864;2023-07-16T00:28:58;100331.06;;;19.58;73.78
77216;BME280;66210;53.282;9.864;2023-07-16T00:31:25;100346.53;;;19.60;73.96
77216;BME280;66210;53.282;9.864;2023-07-16T00:33:52;100343.09;;;19.61;73.92
77216;BME280;66210;53.282;9.864;2023-07-16T00:36:19;100327.59;;;19.56;73.87
77216;BME280;66210;53.282;9.864;2023-07-16T00:38:46;100305.25;;;19.49;73.99
77216;BME280;66210;53.282;9.864;2023-07-16T00:41:13;100274.28;;;19.29;74.41
77216;BME280;66210;53.282;9.864;2023-07-16T00:43:41;100305.22;;;19.35;74.77
77216;BME280;66210;53.282;9.864;2023-07-16T00:46:08;100293.97;;;19.15;74.98
77216;BME280;66210;53.282;9.864;2023-07-16T00:48:36;100303.44;;;19.20;74.89
77216;BME280;66210;53.282;9.864;2023-07-16T00:51:04;100289.72;;;19.15;75.34
77216;BME280;66210;53.282;9.864;2023-07-16T00:53:31;100299.16;;;19.18;75.23
77216;BME280;66210;53.282;9.864;2023-07-16T00:55:59;100275.91;;;19.01;75.50
77216;BME280;66210;53.282;9.864;2023-07-16T00:58:26;100251.00;;;18.97;75.92
77216;BME280;66210;53.282;9.864;2023-07-16T01:00:53;100284.56;;;19.20;75.78
77216;BME280;66210;53.282;9.864;2023-07-16T01:03:20;100304.31;;;19.18;76.08
77216;BME280;66210;53.282;9.864;2023-07-16T01:05:58;100334.34;;;19.19;76.02
77216;BME280;66210;53.282;9.864;2023-07-16T01:08:32;100340.38;;;19.18;76.09
77216;BME280;66210;53.282;9.864;2023-07-16T01:11:01;100318.00;;;19.12;76.07
77216;BME280;66210;53.282;9.864;2023-07-16T01:13:32;100302.50;;;19.00;76.46
77216;BME280;66210;53.282;9.864;2023-07-16T01:15:59;100319.72;;;19.15;76.04
77216;BME280;66210;53.282;9.864;2023-07-16T01:18:26;100275.88;;;18.93;76.44
77216;BME280;66210;53.282;9.864;2023-07-16T01:20:53;100309.47;;;19.18;76.17
77216;BME280;66210;53.282;9.864;2023-07-16T01:23:27;100308.59;;;19.20;76.12
77216;BME280;66210;53.282;9.864;2023-07-16T01:28:44;100295.69;;;19.09;76.13
77216;BME280;66210;53.282;9.864;2023-07-16T01:31:17;100311.13;;;19.09;75.90
77216;BME280;66210;53.282;9.864;2023-07-16T01:33:44;100310.25;;;19.03;75.76
77216;BME280;66210;53.282;9.864;2023-07-16T01:36:17;100336.94;;;19.20;75.85
77216;BME280;66210;53.282;9.864;2023-07-16T01:38:45;100357.53;;;19.23;75.86
77216;BME280;66210;53.282;9.864;2023-07-16T01:41:11;100351.53;;;19.21;76.16
77216;BME280;66210;53.282;9.864;2023-07-16T01:43:38;100336.06;;;19.17;76.16
77216;BME280;66210;53.282;9.864;2023-07-16T01:46:05;100328.31;;;19.12;76.07
77216;BME280;66210;53.282;9.864;2023-07-16T01:48:33;100312.84;;;19.06;76.24
77216;BME280;66210;53.282;9.864;2023-07-16T01:51:01;100302.47;;;18.92;76.14
77216;BME280;66210;53.282;9.864;2023-07-16T01:53:28;100342.06;;;19.16;76.14
77216;BME280;66210;53.282;9.864;2023-07-16T01:55:55;100321.38;;;18.99;76.25
77216;BME280;66210;53.282;9.864;2023-07-16T01:58:21;100366.13;;;19.18;76.17
77216;BME280;66210;53.282;9.864;2023-07-16T02:00:50;100346.28;;;19.00;76.23
77216;BME280;66210;53.282;9.864;2023-07-16T02:03:16;100344.53;;;18.96;76.34
77216;BME280;66210;53.282;9.864;2023-07-16T02:05:43;100326.47;;;18.86;76.60
77216;BME280;66210;53.282;9.864;2023-07-16T02:08:10;100347.19;;;19.06;76.66
77216;BME280;66210;53.282;9.864;2023-07-16T02:10:37;100354.91;;;19.09;76.71
77216;BME280;66210;53.282;9.864;2023-07-16T02:13:03;100353.19;;;19.07;76.60
77216;BME280;66210;53.282;9.864;2023-07-16T02:15:30;100356.59;;;19.07;76.74
77216;BME280;66210;53.282;9.864;2023-07-16T02:17:57;100357.47;;;19.02;76.82
77216;BME280;66210;53.282;9.864;2023-07-16T02:20:24;100357.47;;;19.02;76.68
77216;BME280;66210;53.282;9.864;2023-07-16T02:22:50;100328.16;;;18.81;76.35
77216;BME280;66210;53.282;9.864;2023-07-16T02:25:17;100341.09;;;18.90;76.84
77216;BME280;66210;53.282;9.864;2023-07-16T02:27:44;100367.72;;;18.96;76.85
77216;BME280;66210;53.282;9.864;2023-07-16T02:30:10;100373.72;;;18.95;76.86
77216;BME280;66210;53.282;9.864;2023-07-16T02:32:37;100363.41;;;18.92;76.84
77216;BME280;66210;53.282;9.864;2023-07-16T02:35:04;100342.75;;;18.85;76.95
77216;BME280;66210;53.282;9.864;2023-07-16T02:37:31;100348.81;;;18.94;77.32
77216;BME280;66210;53.282;9.864;2023-07-16T02:39:58;100337.69;;;18.95;77.06
77216;BME280;66210;53.282;9.864;2023-07-16T02:42:25;100326.47;;;18.89;77.17
77216;BME280;66210;53.282;9.864;2023-07-16T02:44:52;100314.41;;;18.81;76.94
77216;BME280;66210;53.282;9.864;2023-07-16T02:47:19;100338.50;;;18.92;77.16
77216;BME280;66210;53.282;9.864;2023-07-16T02:49:45;100293.69;;;18.61;77.06
77216;BME280;66210;53.282;9.864;2023-07-16T02:52:12;100298.00;;;18.63;77.10
77216;BME280;66210;53.282;9.864;2023-07-16T02:54:39;100337.63;;;18.84;77.08
77216;BME280;66210;53.282;9.864;2023-07-16T02:57:06;100332.44;;;18.82;77.19
77216;BME280;66210;53.282;9.864;2023-07-16T02:59:32;100324.66;;;18.73;77.17
77216;BME280;66210;53.282;9.864;2023-07-16T03:01:59;100311.69;;;18.61;77.14
77216;BME280;66210;53.282;9.864;2023-07-16T03:04:26;100334.19;;;18.82;77.37
77216;BME280;66210;53.282;9.864;2023-07-16T03:06:52;100323.00;;;18.78;77.33
77216;BME280;66210;53.282;9.864;2023-07-16T03:09:19;100299.72;;;18.64;77.13
77216;BME280;66210;53.282;9.864;2023-07-16T03:11:45;100323.00;;;18.83;77.01
77216;BME280;66210;53.282;9.864;2023-07-16T03:14:12;100341.91;;;18.82;77.03
77216;BME280;66210;53.282;9.864;2023-07-16T03:16:41;100332.44;;;18.79;77.15
77216;BME280;66210;53.282;9.864;2023-07-16T03:19:08;100314.31;;;18.64;76.99
77216;BME280;66210;53.282;9.864;2023-07-16T03:21:35;100299.63;;;18.49;77.33
77216;BME280;66210;53.282;9.864;2023-07-16T03:24:02;100333.19;;;18.66;77.47
77216;BME280;66210;53.282;9.864;2023-07-16T03:26:29;100334.88;;;18.64;77.43
77216;BME280;66210;53.282;9.864;2023-07-16T03:28:56;100301.28;;;18.39;77.52
77216;BME280;66210;53.282;9.864;2023-07-16T03:31:22;100308.97;;;18.36;77.67
77216;BME280;66210;53.282;9.864;2023-07-16T03:33:49;100348.53;;;18.54;77.73
77216;BME280;66210;53.282;9.864;2023-07-16T03:36:18;100314.94;;;18.31;77.72
77216;BME280;66210;53.282;9.864;2023-07-16T03:38:45;100331.28;;;18.39;77.75
77216;BME280;66210;53.282;9.864;2023-07-16T03:41:12;100320.94;;;18.30;77.78
77216;BME280;66210;53.282;9.864;2023-07-16T03:43:39;100368.25;;;18.53;77.82
77216;BME280;66210;53.282;9.864;2023-07-16T03:46:05;100370.78;;;18.45;77.81
77216;BME280;66210;53.282;9.864;2023-07-16T03:48:35;100343.13;;;18.20;78.08
77216;BME280;66210;53.282;9.864;2023-07-16T03:51:02;100395.59;;;18.42;78.02
77216;BME280;66210;53.282;9.864;2023-07-16T03:53:29;100390.38;;;18.30;78.64
77216;BME280;66210;53.282;9.864;2023-07-16T03:55:56;100402.31;;;18.24;78.55
77216;BME280;66210;53.282;9.864;2023-07-16T03:58:23;100402.22;;;18.15;78.69
77216;BME280;66210;53.282;9.864;2023-07-16T04:00:50;100353.84;;;17.79;78.67
77216;BME280;66210;53.282;9.864;2023-07-16T04:03:17;100374.56;;;17.90;78.58
77216;BME280;66210;53.282;9.864;2023-07-16T04:05:44;100383.19;;;17.98;78.40
77216;BME280;66210;53.282;9.864;2023-07-16T04:08:11;100421.19;;;18.26;78.42
77216;BME280;66210;53.282;9.864;2023-07-16T04:10:38;100410.03;;;18.23;78.39
77216;BME280;66210;53.282;9.864;2023-07-16T04:13:04;100409.19;;;18.27;78.50
77216;BME280;66210;53.282;9.864;2023-07-16T04:15:31;100420.41;;;18.34;78.64
77216;BME280;66210;53.282;9.864;2023-07-16T04:17:58;100385.88;;;18.08;78.25
77216;BME280;66210;53.282;9.864;2023-07-16T04:20:25;100418.66;;;18.30;78.32
77216;BME280;66210;53.282;9.864;2023-07-16T04:22:52;100402.22;;;18.12;78.35
77216;BME280;66210;53.282;9.864;2023-07-16T04:25:19;100432.34;;;18.28;78.21
77216;BME280;66210;53.282;9.864;2023-07-16T04:27:46;100412.47;;;18.11;78.37
77216;BME280;66210;53.282;9.864;2023-07-16T04:30:13;100437.47;;;18.24;78.63
77216;BME280;66210;53.282;9.864;2023-07-16T04:32:39;100409.88;;;18.07;78.45
77216;BME280;66210;53.282;9.864;2023-07-16T04:35:06;100447.81;;;18.30;78.46
77216;BME280;66210;53.282;9.864;2023-07-16T04:37:33;100436.66;;;18.28;78.35
77216;BME280;66210;53.282;9.864;2023-07-16T04:40:00;100426.38;;;18.30;78.08
77216;BME280;66210;53.282;9.864;2023-07-16T04:42:27;100396.13;;;18.07;78.28
77216;BME280;66210;53.282;9.864;2023-07-16T04:44:53;100422.06;;;18.28;78.38
77216;BME280;66210;53.282;9.864;2023-07-16T04:47:20;100422.97;;;18.34;77.98
77216;BME280;66210;53.282;9.864;2023-07-16T04:49:47;100405.75;;;18.23;78.33
77216;BME280;66210;53.282;9.864;2023-07-16T04:52:13;100413.53;;;18.30;78.44
77216;BME280;66210;53.282;9.864;2023-07-16T04:54:40;100441.91;;;18.40;78.53
77216;BME280;66210;53.282;9.864;2023-07-16T04:57:07;100399.63;;;18.14;78.42
77216;BME280;66210;53.282;9.864;2023-07-16T04:59:34;100441.94;;;18.45;78.63
77216;BME280;66210;53.282;9.864;2023-07-16T05:02:04;100399.69;;;18.20;78.42
77216;BME280;66210;53.282;9.864;2023-07-16T05:04:33;100453.13;;;18.45;78.54
77216;BME280;66210;53.282;9.864;2023-07-16T05:07:01;100432.41;;;18.33;78.69
77216;BME280;66210;53.282;9.864;2023-07-16T05:09:29;100454.81;;;18.46;78.45
77216;BME280;66210;53.282;9.864;2023-07-16T05:11:55;100448.78;;;18.44;78.31
77216;BME280;66210;53.282;9.864;2023-07-16T05:14:22;100465.19;;;18.53;78.23
77216;BME280;66210;53.282;9.864;2023-07-16T05:16:49;100467.75;;;18.54;78.20
77216;BME280;66210;53.282;9.864;2023-07-16T05:19:16;100468.66;;;18.59;77.95
77216;BME280;66210;53.282;9.864;2023-07-16T05:21:42;100458.38;;;18.61;77.91
77216;BME280;66210;53.282;9.864;2023-07-16T05:24:09;100468.75;;;18.70;77.88
77216;BME280;66210;53.282;9.864;2023-07-16T05:26:36;100468.78;;;18.73;77.87
77216;BME280;66210;53.282;9.864;2023-07-16T05:29:02;100470.59;;;18.82;77.64
77216;BME280;66210;53.282;9.864;2023-07-16T05:31:29;100467.19;;;18.81;77.41
77216;BME280;66210;53.282;9.864;2023-07-16T05:33:56;100474.13;;;18.96;77.64
77216;BME280;66210;53.282;9.864;2023-07-16T05:36:23;100418.06;;;18.63;77.40
77216;BME280;66210;53.282;9.864;2023-07-16T05:38:49;100473.28;;;18.96;77.09
77216;BME280;66210;53.282;9.864;2023-07-16T05:41:16;100478.50;;;19.05;76.72
77216;BME280;66210;53.282;9.864;2023-07-16T05:43:43;100473.34;;;19.06;76.52
77216;BME280;66210;53.282;9.864;2023-07-16T05:46:09;100490.59;;;19.15;76.16
77216;BME280;66210;53.282;9.864;2023-07-16T05:48:36;100486.31;;;19.19;75.11
77216;BME280;66210;53.282;9.864;2023-07-16T05:51:03;100477.72;;;19.18;75.32
77216;BME280;66210;53.282;9.864;2023-07-16T05:53:30;100485.50;;;19.24;75.21
77216;BME280;66210;53.282;9.864;2023-07-16T05:55:56;100486.41;;;19.31;74.71
77216;BME280;66210;53.282;9.864;2023-07-16T05:58:23;100473.50;;;19.26;74.72
77216;BME280;66210;53.282;9.864;2023-07-16T06:00:50;100482.13;;;19.39;74.47
77216;BME280;66210;53.282;9.864;2023-07-16T06:03:17;100428.75;;;19.10;73.46
77216;BME280;66210;53.282;9.864;2023-07-16T06:05:45;100492.56;;;19.56;72.67
77216;BME280;66210;53.282;9.864;2023-07-16T06:08:12;100499.53;;;19.69;72.15
77216;BME280;66210;53.282;9.864;2023-07-16T06:10:39;100496.94;;;19.72;72.34
77216;BME280;66210;53.282;9.864;2023-07-16T06:13:05;100453.03;;;19.54;71.54
77216;BME280;66210;53.282;9.864;2023-07-16T06:15:32;100497.88;;;19.85;70.56
77216;BME280;66210;53.282;9.864;2023-07-16T06:17:59;100501.28;;;19.81;70.99
77216;BME280;66210;53.282;9.864;2023-07-16T06:20:25;100487.50;;;19.70;71.09
77216;BME280;66210;53.282;9.864;2023-07-16T06:22:52;100503.03;;;19.82;71.23
77216;BME280;66210;53.282;9.864;2023-07-16T06:25:19;100507.34;;;19.85;71.25
77216;BME280;66210;53.282;9.864;2023-07-16T06:27:47;100521.13;;;19.98;71.33
77216;BME280;66210;53.282;9.864;2023-07-16T06:30:13;100478.94;;;19.83;71.06
77216;BME280;66210;53.282;9.864;2023-07-16T06:32:40;100505.69;;;20.13;70.84
77216;BME280;66210;53.282;9.864;2023-07-16T06:35:08;100496.22;;;20.04;71.15
77216;BME280;66210;53.282;9.864;2023-07-16T06:37:35;100485.00;;;19.93;70.46
77216;BME280;66210;53.282;9.864;2023-07-16T06:40:01;100524.63;;;20.15;70.52
77216;BME280;66210;53.282;9.864;2023-07-16T06:42:30;100511.69;;;20.03;70.70
77216;BME280;66210;53.282;9.864;2023-07-16T06:44:56;100529.81;;;20.13;70.88
77216;BME280;66210;53.282;9.864;2023-07-16T06:47:23;100486.72;;;19.91;71.26
77216;BME280;66210;53.282;9.864;2023-07-16T06:49:49;100521.16;;;20.08;70.74
77216;BME280;66210;53.282;9.864;2023-07-16T06:52:22;100532.38;;;20.17;70.63
77216;BME280;66210;53.282;9.864;2023-07-16T06:54:51;100525.50;;;20.17;70.50
77216;BME280;66210;53.282;9.864;2023-07-16T06:57:17;100525.53;;;20.23;70.04
77216;BME280;66210;53.282;9.864;2023-07-16T06:59:44;100516.09;;;20.27;69.75
77216;BME280;66210;53.282;9.864;2023-07-16T07:02:12;100496.28;;;20.23;69.00
77216;BME280;66210;53.282;9.864;2023-07-16T07:04:38;100532.44;;;20.44;69.07
77216;BME280;66210;53.282;9.864;2023-07-16T07:07:06;100498.88;;;20.23;68.68
77216;BME280;66210;53.282;9.864;2023-07-16T07:09:33;100520.41;;;20.34;67.55
77216;BME280;66210;53.282;9.864;2023-07-16T07:11:59;100526.41;;;20.33;67.27
77216;BME280;66210;53.282;9.864;2023-07-16T07:14:26;100541.03;;;20.37;67.80
77216;BME280;66210;53.282;9.864;2023-07-16T07:16:52;100503.13;;;20.14;67.21
77216;BME280;66210;53.282;9.864;2023-07-16T07:19:19;100545.34;;;20.38;67.30
77216;BME280;66210;53.282;9.864;2023-07-16T07:21:46;100535.03;;;20.43;66.23
77216;BME280;66210;53.282;9.864;2023-07-16T07:24:13;100540.22;;;20.52;67.24
77216;BME280;66210;53.282;9.864;2023-07-16T07:26:39;100528.16;;;20.48;66.25
77216;BME280;66210;53.282;9.864;2023-07-16T07:29:06;100537.69;;;20.57;66.40
77216;BME280;66210;53.282;9.864;2023-07-16T07:31:33;100546.28;;;20.59;66.13
77216;BME280;66210;53.282;9.864;2023-07-16T07:34:00;100491.13;;;20.30;65.43
77216;BME280;66210;53.282;9.864;2023-07-16T07:36:27;100499.72;;;20.35;64.87
77216;BME280;66210;53.282;9.864;2023-07-16T07:38:53;100527.34;;;20.58;65.20
77216;BME280;66210;53.282;9.864;2023-07-16T07:41:20;100524.78;;;20.63;65.05
77216;BME280;66210;53.282;9.864;2023-07-16T07:43:47;100498.91;;;20.55;64.77
77216;BME280;66210;53.282;9.864;2023-07-16T07:46:13;100521.31;;;20.71;64.81
77216;BME280;66210;53.282;9.864;2023-07-16T07:48:41;100511.84;;;20.58;63.79
77216;BME280;66210;53.282;9.864;2023-07-16T07:51:07;100534.25;;;20.79;63.55
77216;BME280;66210;53.282;9.864;2023-07-16T07:53:34;100537.69;;;20.89;64.24
77216;BME280;66210;53.282;9.864;2023-07-16T07:56:00;100506.72;;;20.81;63.68
77216;BME280;66210;53.282;9.864;2023-07-16T07:58:28;100525.63;;;21.14;63.50
77216;BME280;66210;53.282;9.864;2023-07-16T08:00:54;100522.16;;;21.55;61.00
77216;BME280;66210;53.282;9.864;2023-07-16T08:03:21;100528.91;;;21.96;60.75
77216;BME280;66210;53.282;9.864;2023-07-16T08:05:49;100524.47;;;22.30;56.63
77216;BME280;66210;53.282;9.864;2023-07-16T08:08:16;100527.09;;;22.29;56.54
77216;BME280;66210;53.282;9.864;2023-07-16T08:10:43;100526.34;;;21.97;57.58
77216;BME280;66210;53.282;9.864;2023-07-16T08:13:09;100496.31;;;21.55;57.90
77216;BME280;66210;53.282;9.864;2023-07-16T08:15:36;100535.94;;;21.48;59.27
77216;BME280;66210;53.282;9.864;2023-07-16T08:18:03;100534.25;;;21.28;60.16
77216;BME280;66210;53.282;9.864;2023-07-16T08:20:30;100528.22;;;21.37;59.66
77216;BME280;66210;53.282;9.864;2023-07-16T08:22:57;100556.47;;;22.08;58.33
77216;BME280;66210;53.282;9.864;2023-07-16T08:25:24;100549.25;;;22.71;54.92
77216;BME280;66210;53.282;9.864;2023-07-16T08:27:50;100549.72;;;23.22;53.52
77216;BME280;66210;53.282;9.864;2023-07-16T08:30:17;100547.97;;;23.26;52.78
77216;BME280;66210;53.282;9.864;2023-07-16T08:32:44;100560.13;;;23.21;54.09
77216;BME280;66210;53.282;9.864;2023-07-16T08:35:11;100570.50;;;23.19;54.12
77216;BME280;66210;53.282;9.864;2023-07-16T08:37:43;100560.75;;;23.44;54.18
77216;BME280;66210;53.282;9.864;2023-07-16T08:40:12;100571.53;;;23.90;52.02
77216;BME280;66210;53.282;9.864;2023-07-16T08:42:39;100552.81;;;24.33;48.26
77216;BME280;66210;53.282;9.864;2023-07-16T08:45:09;100563.78;;;24.58;48.88
77216;BME280;66210;53.282;9.864;2023-07-16T08:47:38;100564.25;;;24.84;45.71
77216;BME280;66210;53.282;9.864;2023-07-16T08:50:05;100559.72;;;24.96;45.76
77216;BME280;66210;53.282;9.864;2023-07-16T08:52:31;100566.56;;;25.00;46.80
77216;BME280;66210;53.282;9.864;2023-07-16T08:54:58;100573.13;;;24.69;46.82
77216;BME280;66210;53.282;9.864;2023-07-16T08:57:25;100585.03;;;24.19;46.79
77216;BME280;66210;53.282;9.864;2023-07-16T08:59:53;100576.28;;;23.48;49.04
77216;BME280;66210;53.282;9.864;2023-07-16T09:02:21;100598.28;;;23.03;50.58
77216;BME280;66210;53.282;9.864;2023-07-16T09:04:49;100592.31;;;22.84;50.55
77216;BME280;66210;53.282;9.864;2023-07-16T09:07:17;100596.56;;;22.96;50.98
77216;BME280;66210;53.282;9.864;2023-07-16T09:09:57;100593.91;;;23.09;50.02
77216;BME280;66210;53.282;9.864;2023-07-16T09:12:27;100609.91;;;23.57;50.51
77216;BME280;66210;53.282;9.864;2023-07-16T09:14:54;100588.50;;;24.17;48.14
77216;BME280;66210;53.282;9.864;2023-07-16T09:17:22;100585.19;;;24.74;47.76
77216;BME280;66210;53.282;9.864;2023-07-16T09:19:51;100592.41;;;25.10;45.35
77216;BME280;66210;53.282;9.864;2023-07-16T09:22:18;100604.06;;;25.41;45.37
77216;BME280;66210;53.282;9.864;2023-07-16T09:24:46;100602.34;;;25.40;44.47
77216;BME280;66210;53.282;9.864;2023-07-16T09:27:14;100603.44;;;25.26;45.08
77216;BME280;66210;53.282;9.864;2023-07-16T09:29:40;100609.28;;;25.41;44.93
77216;BME280;66210;53.282;9.864;2023-07-16T09:32:08;100600.81;;;25.26;44.96
77216;BME280;66210;53.282;9.864;2023-07-16T09:34:35;100604.75;;;24.98;45.35
77216;BME280;66210;53.282;9.864;2023-07-16T09:37:01;100611.44;;;24.54;45.71
77216;BME280;66210;53.282;9.864;2023-07-16T09:39:31;100620.44;;;24.26;47.68
77216;BME280;66210;53.282;9.864;2023-07-16T09:41:58;100622.00;;;24.37;47.70
77216;BME280;66210;53.282;9.864;2023-07-16T09:44:25;100623.75;;;24.36;47.49
77216;BME280;66210;53.282;9.864;2023-07-16T09:46:51;100626.28;;;24.41;47.21
77216;BME280;66210;53.282;9.864;2023-07-16T09:49:18;100621.91;;;24.47;46.09
77216;BME280;66210;53.282;9.864;2023-07-16T09:51:45;100625.91;;;24.73;45.45
77216;BME280;66210;53.282;9.864;2023-07-16T09:54:13;100622.69;;;25.13;44.82
77216;BME280;66210;53.282;9.864;2023-07-16T09:56:44;100615.09;;;25.54;43.93
77216;BME280;66210;53.282;9.864;2023-07-16T09:59:14;100624.47;;;25.62;43.12
77216;BME280;66210;53.282;9.864;2023-07-16T10:01:41;100628.53;;;25.29;43.88
77216;BME280;66210;53.282;9.864;2023-07-16T10:04:16;100629.50;;;25.23;43.91
77216;BME280;66210;53.282;9.864;2023-07-16T10:06:54;100640.50;;;25.39;43.90
77216;BME280;66210;53.282;9.864;2023-07-16T10:09:39;100645.84;;;25.30;44.27
77216;BME280;66210;53.282;9.864;2023-07-16T10:12:16;100641.66;;;25.21;43.71
77216;BME280;66210;53.282;9.864;2023-07-16T10:14:49;100637.28;;;25.25;44.13
77216;BME280;66210;53.282;9.864;2023-07-16T10:17:23;100648.47;;;25.28;44.10
77216;BME280;66210;53.282;9.864;2023-07-16T10:20:06;100646.78;;;25.27;44.99
77216;BME280;66210;53.282;9.864;2023-07-16T10:22:39;100653.09;;;25.09;44.33
77216;BME280;66210;53.282;9.864;2023-07-16T10:25:22;100649.81;;;24.95;44.55
77216;BME280;66210;53.282;9.864;2023-07-16T10:27:50;100645.44;;;24.99;44.45
77216;BME280;66210;53.282;9.864;2023-07-16T10:30:18;100650.81;;;24.88;45.78
77216;BME280;66210;53.282;9.864;2023-07-16T10:32:45;100655.28;;;24.80;45.17
77216;BME280;66210;53.282;9.864;2023-07-16T10:35:13;100657.28;;;24.58;45.57
77216;BME280;66210;53.282;9.864;2023-07-16T10:37:40;100662.78;;;24.32;45.57
77216;BME280;66210;53.282;9.864;2023-07-16T10:40:10;100660.56;;;23.98;45.37
77216;BME280;66210;53.282;9.864;2023-07-16T10:42:43;100667.69;;;23.76;46.20
77216;BME280;66210;53.282;9.864;2023-07-16T10:45:10;100664.16;;;23.84;46.42
77216;BME280;66210;53.282;9.864;2023-07-16T10:47:40;100669.31;;;23.88;46.64
77216;BME280;66210;53.282;9.864;2023-07-16T10:50:09;100677.13;;;23.84;46.84
77216;BME280;66210;53.282;9.864;2023-07-16T10:52:39;100666.00;;;23.69;46.64
77216;BME280;66210;53.282;9.864;2023-07-16T10:55:06;100677.34;;;23.55;47.13
77216;BME280;66210;53.282;9.864;2023-07-16T10:57:32;100674.88;;;23.41;46.88
77216;BME280;66210;53.282;9.864;2023-07-16T10:59:59;100686.25;;;23.23;47.41
77216;BME280;66210;53.282;9.864;2023-07-16T11:02:27;100676.00;;;23.03;47.30
77216;BME280;66210;53.282;9.864;2023-07-16T11:04:54;100680.34;;;23.01;48.08
77216;BME280;66210;53.282;9.864;2023-07-16T11:07:21;100673.38;;;23.08;47.75
77216;BME280;66210;53.282;9.864;2023-07-16T11:09:50;100678.50;;;23.19;47.82
77216;BME280;66210;53.282;9.864;2023-07-16T11:12:20;100679.22;;;23.41;47.97
77216;BME280;66210;53.282;9.864;2023-07-16T11:14:50;100678.06;;;23.77;47.32
77216;BME280;66210;53.282;9.864;2023-07-16T11:17:17;100674.38;;;23.98;47.02
77216;BME280;66210;53.282;9.864;2023-07-16T11:19:46;100675.97;;;24.13;46.96
77216;BME280;66210;53.282;9.864;2023-07-16T11:22:14;100675.75;;;24.30;47.29
77216;BME280;66210;53.282;9.864;2023-07-16T11:24:49;100681.66;;;24.47;45.57
77216;BME280;66210;53.282;9.864;2023-07-16T11:27:25;100676.88;;;24.82;46.19
77216;BME280;66210;53.282;9.864;2023-07-16T11:29:54;100677.50;;;24.99;44.38
77216;BME280;66210;53.282;9.864;2023-07-16T11:32:32;100676.81;;;24.86;44.26
77216;BME280;66210;53.282;9.864;2023-07-16T11:35:01;100681.41;;;24.66;45.21
77216;BME280;66210;53.282;9.864;2023-07-16T11:37:30;100691.91;;;24.60;45.58
77216;BME280;66210;53.282;9.864;2023-07-16T11:40:08;100673.34;;;24.86;46.57
77216;BME280;66210;53.282;9.864;2023-07-16T11:42:37;100678.28;;;25.04;45.32
77216;BME280;66210;53.282;9.864;2023-07-16T11:45:05;100690.56;;;24.93;44.96
77216;BME280;66210;53.282;9.864;2023-07-16T11:47:32;100694.41;;;24.67;45.33
77216;BME280;66210;53.282;9.864;2023-07-16T11:49:58;100687.91;;;24.28;45.13
77216;BME280;66210;53.282;9.864;2023-07-16T11:52:27;100701.25;;;23.96;45.80
77216;BME280;66210;53.282;9.864;2023-07-16T11:54:56;100703.94;;;23.85;46.08
77216;BME280;66210;53.282;9.864;2023-07-16T11:57:23;100692.53;;;24.01;47.11
77216;BME280;66210;53.282;9.864;2023-07-16T11:59:52;100687.69;;;24.48;44.59
77216;BME280;66210;53.282;9.864;2023-07-16T12:02:20;100705.63;;;24.68;44.57
77216;BME280;66210;53.282;9.864;2023-07-16T12:04:48;100687.63;;;24.54;44.19
77216;BME280;66210;53.282;9.864;2023-07-16T12:07:15;100703.47;;;24.30;45.27
77216;BME280;66210;53.282;9.864;2023-07-16T12:09:44;100708.03;;;24.07;45.14
77216;BME280;66210;53.282;9.864;2023-07-16T12:12:10;100716.03;;;23.86;46.19
77216;BME280;66210;53.282;9.864;2023-07-16T12:14:37;100715.34;;;23.64;46.58
77216;BME280;66210;53.282;9.864;2023-07-16T12:17:03;100728.41;;;23.49;47.04
77216;BME280;66210;53.282;9.864;2023-07-16T12:19:30;100726.81;;;23.31;47.23
77216;BME280;66210;53.282;9.864;2023-07-16T12:21:58;100722.50;;;23.28;47.53
77216;BME280;66210;53.282;9.864;2023-07-16T12:24:25;100725.06;;;23.31;47.90
77216;BME280;66210;53.282;9.864;2023-07-16T12:26:52;100730.25;;;23.34;47.75
77216;BME280;66210;53.282;9.864;2023-07-16T12:29:18;100720.78;;;23.30;47.40
77216;BME280;66210;53.282;9.864;2023-07-16T12:31:45;100728.59;;;23.22;48.12
77216;BME280;66210;53.282;9.864;2023-07-16T12:34:12;100725.16;;;23.16;48.48
77216;BME280;66210;53.282;9.864;2023-07-16T12:36:38;100737.31;;;23.12;48.10
77216;BME280;66210;53.282;9.864;2023-07-16T12:39:05;100730.38;;;23.13;48.38
77216;BME280;66210;53.282;9.864;2023-07-16T12:41:31;100743.38;;;23.10;48.56
77216;BME280;66210;53.282;9.864;2023-07-16T12:43:58;100742.53;;;23.01;48.22
77216;BME280;66210;53.282;9.864;2023-07-16T12:46:24;100733.03;;;22.93;48.49
77216;BME280;66210;53.282;9.864;2023-07-16T12:48:51;100733.94;;;22.90;48.35
77216;BME280;66210;53.282;9.864;2023-07-16T12:51:17;100744.28;;;23.01;48.98
77216;BME280;66210;53.282;9.864;2023-07-16T12:53:44;100742.50;;;23.09;48.82
77216;BME280;66210;53.282;9.864;2023-07-16T12:56:11;100754.56;;;23.15;48.47